Time;durP1;ratioP1;P1;durP2;ratioP2;P2;SDS_P1;SDS_P2;PMS_P1;PMS_P2;Temp;Humidity;BMP_temperature;BMP_pressure;BME280_temperature;BME280_humidity;BME280_pressure;Samples;Min_cycle;Max_cycle;Signal;HPM_P1;HPM_P2
2023/12/05 00:00:36;;;;;;;21.25;8.90;;;;;;;;;;5027091;28;20028;-65
2023/12/05 00:03:01;;;;;;;20.65;8.50;;;;;;;;;;5036450;28;20018;-65
2023/12/05 00:05:26;;;;;;;21.17;9.40;;;;;;;;;;5047061;28;20021;-65
2023/12/05 00:07:52;;;;;;;22.00;9.48;;;;;;;;;;5041400;28;20384;-64
2023/12/05 00:10:17;;;;;;;20.90;8.85;;;;;;;;;;5043658;28;20021;-65
2023/12/05 00:12:42;;;;;;;26.67;9.43;;;;;;;;;;5042641;28;20029;-65
2023/12/05 00:15:08;;;;;;;18.92;8.93;;;;;;;;;;5037857;28;20523;-65
2023/12/05 00:17:33;;;;;;;23.48;10.57;;;;;;;;;;5049181;28;20408;-65
2023/12/05 00:19:58;;;;;;;23.85;10.82;;;;;;;;;;5037599;28;20080;-64
2023/12/05 00:22:26;;;;;;;27.40;9.15;;;;;;;;;;5032705;28;20025;-66
2023/12/05 00:24:51;;;;;;;23.52;9.80;;;;;;;;;;5033096;28;20049;-66
2023/12/05 00:27:17;;;;;;;21.10;9.93;;;;;;;;;;5044586;28;20059;-65
2023/12/05 00:29:42;;;;;;;25.33;10.43;;;;;;;;;;5036001;28;20037;-65
2023/12/05 00:32:07;;;;;;;23.65;10.75;;;;;;;;;;5037281;28;20104;-65
2023/12/05 00:34:32;;;;;;;22.40;10.07;;;;;;;;;;5040581;28;20049;-65
2023/12/05 00:36:57;;;;;;;18.23;8.45;;;;;;;;;;5042881;28;20025;-65
2023/12/05 00:39:23;;;;;;;24.35;10.90;;;;;;;;;;5036979;28;20025;-65
2023/12/05 00:41:48;;;;;;;27.02;10.48;;;;;;;;;;5041329;28;20045;-65
2023/12/05 00:44:14;;;;;;;24.95;9.93;;;;;;;;;;5032723;28;20360;-66
2023/12/05 00:46:39;;;;;;;24.58;9.25;;;;;;;;;;5033288;28;20020;-66
2023/12/05 00:49:04;;;;;;;31.63;10.85;;;;;;;;;;5036848;28;20505;-65
2023/12/05 00:51:29;;;;;;;32.92;10.43;;;;;;;;;;5044019;28;20559;-65
2023/12/05 00:53:55;;;;;;;18.58;9.75;;;;;;;;;;5042131;28;20093;-65
2023/12/05 00:56:20;;;;;;;22.25;9.95;;;;;;;;;;5046624;28;20021;-64
2023/12/05 00:58:45;;;;;;;25.95;10.00;;;;;;;;;;5039838;28;20385;-64
2023/12/05 01:01:11;;;;;;;25.10;9.60;;;;;;;;;;5035162;28;20022;-64
2023/12/05 01:03:36;;;;;;;25.88;10.68;;;;;;;;;;5039513;28;20389;-65
2023/12/05 01:06:01;;;;;;;27.10;9.93;;;;;;;;;;5046972;28;20036;-64
2023/12/05 01:08:27;;;;;;;20.67;8.75;;;;;;;;;;5042652;28;20043;-66
2023/12/05 01:10:52;;;;;;;25.02;10.27;;;;;;;;;;5047528;28;20024;-64
2023/12/05 01:13:17;;;;;;;20.85;8.82;;;;;;;;;;5040932;28;20028;-64
2023/12/05 01:15:42;;;;;;;22.00;9.40;;;;;;;;;;5044760;28;20019;-65
2023/12/05 01:18:07;;;;;;;18.02;8.98;;;;;;;;;;5044939;28;20024;-65
2023/12/05 01:20:33;;;;;;;23.60;9.32;;;;;;;;;;5044372;28;20043;-65
2023/12/05 01:22:58;;;;;;;20.50;10.00;;;;;;;;;;5044848;28;20029;-65
2023/12/05 01:25:23;;;;;;;22.55;10.10;;;;;;;;;;5042170;28;20036;-66
2023/12/05 01:27:48;;;;;;;19.00;8.75;;;;;;;;;;5042261;28;20064;-65
2023/12/05 01:30:14;;;;;;;19.95;9.88;;;;;;;;;;5043289;28;20025;-62
2023/12/05 01:32:39;;;;;;;19.63;9.48;;;;;;;;;;5041767;28;20188;-66
2023/12/05 01:35:04;;;;;;;19.50;8.75;;;;;;;;;;5044113;28;20028;-64
2023/12/05 01:37:29;;;;;;;18.27;9.00;;;;;;;;;;5036446;28;20055;-65
2023/12/05 01:39:55;;;;;;;22.30;9.60;;;;;;;;;;5047345;28;20082;-66
2023/12/05 01:42:20;;;;;;;23.70;10.13;;;;;;;;;;5043800;28;20099;-66
2023/12/05 01:44:45;;;;;;;22.85;9.55;;;;;;;;;;5038286;28;20092;-66
2023/12/05 01:47:11;;;;;;;17.95;8.27;;;;;;;;;;5038147;28;20025;-65
2023/12/05 01:49:36;;;;;;;23.83;10.65;;;;;;;;;;5037616;28;20021;-67
2023/12/05 01:52:02;;;;;;;21.00;10.00;;;;;;;;;;5039297;28;20381;-63
2023/12/05 01:54:29;;;;;;;21.27;9.18;;;;;;;;;;5047003;28;20040;-64
2023/12/05 01:56:55;;;;;;;25.33;10.05;;;;;;;;;;5037704;28;20109;-65
2023/12/05 01:59:20;;;;;;;22.55;9.60;;;;;;;;;;5043166;28;20025;-64
2023/12/05 02:01:47;;;;;;;24.58;10.20;;;;;;;;;;5045287;28;20037;-65
2023/12/05 02:04:13;;;;;;;22.63;9.88;;;;;;;;;;5042874;28;20089;-66
2023/12/05 02:06:38;;;;;;;24.23;10.63;;;;;;;;;;5043606;28;20052;-65
2023/12/05 02:09:04;;;;;;;23.55;10.50;;;;;;;;;;5045418;28;20025;-64
2023/12/05 02:11:29;;;;;;;23.38;9.57;;;;;;;;;;5044019;28;20016;-64
2023/12/05 02:13:54;;;;;;;21.48;8.82;;;;;;;;;;5036813;28;20018;-65
2023/12/05 02:16:31;;;;;;;18.13;8.98;;;;;;;;;;5042229;28;20017;-65
2023/12/05 02:19:01;;;;;;;26.83;10.15;;;;;;;;;;5048974;28;20066;-65
2023/12/05 02:21:28;;;;;;;18.55;9.40;;;;;;;;;;5040935;28;20020;-65
2023/12/05 02:23:53;;;;;;;24.50;10.27;;;;;;;;;;5044776;28;20016;-65
2023/12/05 02:26:35;;;;;;;26.65;9.80;;;;;;;;;;5040340;28;21972;-65
2023/12/05 02:29:00;;;;;;;22.38;9.68;;;;;;;;;;5045224;28;20027;-64
2023/12/05 02:31:25;;;;;;;33.22;10.35;;;;;;;;;;5040576;28;20025;-66
2023/12/05 02:33:51;;;;;;;24.30;10.70;;;;;;;;;;5043857;28;20063;-64
2023/12/05 02:36:23;;;;;;;23.75;9.40;;;;;;;;;;5042605;28;20018;-66
2023/12/05 02:38:48;;;;;;;20.52;10.43;;;;;;;;;;5033434;28;20021;-65
2023/12/05 02:41:24;;;;;;;21.83;9.95;;;;;;;;;;5043117;28;20021;-64
2023/12/05 02:43:55;;;;;;;21.80;10.18;;;;;;;;;;5038435;28;20024;-63
2023/12/05 02:46:21;;;;;;;25.25;9.60;;;;;;;;;;5027266;28;20029;-65
2023/12/05 02:48:46;;;;;;;20.02;8.90;;;;;;;;;;5041434;28;20114;-64
2023/12/05 02:51:12;;;;;;;19.50;9.20;;;;;;;;;;5034084;28;20054;-65
2023/12/05 02:53:37;;;;;;;20.30;9.40;;;;;;;;;;5046302;28;20024;-66
2023/12/05 02:56:03;;;;;;;20.58;9.70;;;;;;;;;;5044805;28;20025;-65
2023/12/05 02:58:28;;;;;;;22.50;9.90;;;;;;;;;;5036061;28;20473;-65
2023/12/05 03:00:53;;;;;;;21.63;8.60;;;;;;;;;;5035773;28;20033;-65
2023/12/05 03:03:19;;;;;;;19.98;9.02;;;;;;;;;;5038312;28;20068;-65
2023/12/05 03:05:44;;;;;;;26.27;8.75;;;;;;;;;;5047251;28;20029;-65
2023/12/05 03:08:09;;;;;;;18.13;8.60;;;;;;;;;;5037483;28;20100;-65
2023/12/05 03:10:34;;;;;;;20.42;10.05;;;;;;;;;;5045997;28;20469;-65
2023/12/05 03:12:59;;;;;;;20.27;9.27;;;;;;;;;;5040192;28;20025;-65
2023/12/05 03:15:25;;;;;;;20.05;9.07;;;;;;;;;;5042661;28;20017;-66
2023/12/05 03:17:50;;;;;;;21.35;9.25;;;;;;;;;;5041462;28;20013;-63
2023/12/05 03:20:15;;;;;;;27.17;9.25;;;;;;;;;;5039313;28;20025;-64
2023/12/05 03:22:40;;;;;;;18.25;9.25;;;;;;;;;;5043737;28;20021;-65
2023/12/05 03:25:06;;;;;;;17.25;8.63;;;;;;;;;;5036094;28;20424;-64
2023/12/05 03:27:31;;;;;;;20.40;9.38;;;;;;;;;;5041609;28;20012;-65
2023/12/05 03:29:57;;;;;;;20.10;9.43;;;;;;;;;;5041608;28;20082;-66
2023/12/05 03:32:22;;;;;;;17.33;8.65;;;;;;;;;;5039047;28;20472;-66
2023/12/05 03:34:47;;;;;;;21.83;9.68;;;;;;;;;;5043313;28;20013;-64
2023/12/05 03:37:12;;;;;;;24.00;10.70;;;;;;;;;;5043944;28;20024;-65
2023/12/05 03:39:37;;;;;;;18.92;8.65;;;;;;;;;;5045605;28;20021;-66
2023/12/05 03:42:03;;;;;;;21.45;9.48;;;;;;;;;;5039916;28;20389;-65
2023/12/05 03:44:28;;;;;;;24.83;9.90;;;;;;;;;;5036167;28;20009;-65
2023/12/05 03:46:53;;;;;;;23.48;9.70;;;;;;;;;;5037076;28;20021;-65
2023/12/05 03:49:18;;;;;;;22.73;10.20;;;;;;;;;;5033259;28;20037;-65
2023/12/05 03:51:44;;;;;;;27.92;10.18;;;;;;;;;;5045454;28;20040;-65
2023/12/05 03:54:09;;;;;;;19.55;9.90;;;;;;;;;;5033201;28;20018;-65
2023/12/05 03:56:34;;;;;;;23.33;10.85;;;;;;;;;;5030580;28;20385;-65
2023/12/05 03:58:59;;;;;;;21.48;10.45;;;;;;;;;;5029043;28;20421;-64
2023/12/05 04:01:24;;;;;;;19.38;9.43;;;;;;;;;;5035960;28;20102;-65
2023/12/05 04:03:50;;;;;;;23.95;9.57;;;;;;;;;;5030331;28;20017;-65
2023/12/05 04:06:22;;;;;;;25.85;10.25;;;;;;;;;;5044612;28;20091;-65
2023/12/05 04:08:47;;;;;;;21.77;10.70;;;;;;;;;;5043728;28;20403;-65
2023/12/05 04:11:13;;;;;;;20.15;9.57;;;;;;;;;;5043214;28;20017;-65
2023/12/05 04:13:38;;;;;;;20.55;9.90;;;;;;;;;;5034500;28;20013;-66
2023/12/05 04:16:05;;;;;;;19.77;9.38;;;;;;;;;;5039020;28;20125;-67
2023/12/05 04:18:30;;;;;;;21.35;9.10;;;;;;;;;;5047179;28;20039;-66
2023/12/05 04:20:56;;;;;;;21.33;9.55;;;;;;;;;;5047418;28;20472;-66
2023/12/05 04:23:21;;;;;;;21.83;9.90;;;;;;;;;;5048338;28;20021;-65
2023/12/05 04:25:46;;;;;;;18.58;9.00;;;;;;;;;;5046080;28;20036;-66
2023/12/05 04:28:11;;;;;;;22.63;9.27;;;;;;;;;;5045207;28;20037;-66
2023/12/05 04:30:36;;;;;;;21.98;9.85;;;;;;;;;;5053267;28;20020;-66
2023/12/05 04:33:02;;;;;;;20.88;10.02;;;;;;;;;;5041017;28;20117;-65
2023/12/05 04:35:27;;;;;;;23.30;10.32;;;;;;;;;;5048236;28;20472;-65
2023/12/05 04:37:52;;;;;;;21.77;9.20;;;;;;;;;;5037682;28;20013;-64
2023/12/05 04:40:19;;;;;;;24.30;11.40;;;;;;;;;;5048396;28;20028;-65
2023/12/05 04:42:44;;;;;;;20.90;10.02;;;;;;;;;;5039893;28;20018;-65
2023/12/05 04:45:09;;;;;;;21.10;9.60;;;;;;;;;;5045254;28;20016;-66
2023/12/05 04:47:34;;;;;;;22.65;9.55;;;;;;;;;;5041314;28;20028;-66
2023/12/05 04:49:59;;;;;;;20.27;9.85;;;;;;;;;;5047009;28;20024;-67
2023/12/05 04:52:25;;;;;;;20.42;9.85;;;;;;;;;;5043364;28;20013;-68
2023/12/05 04:54:50;;;;;;;18.67;9.77;;;;;;;;;;5048241;28;20055;-66
2023/12/05 04:57:15;;;;;;;18.20;9.10;;;;;;;;;;5038963;28;20014;-66
2023/12/05 04:59:40;;;;;;;19.63;8.85;;;;;;;;;;5045547;28;20027;-66
2023/12/05 05:02:05;;;;;;;21.58;9.65;;;;;;;;;;5043917;28;20029;-66
2023/12/05 05:04:31;;;;;;;25.88;11.13;;;;;;;;;;5045512;28;20029;-66
2023/12/05 05:06:56;;;;;;;29.75;11.02;;;;;;;;;;5040034;28;20013;-66
2023/12/05 05:09:21;;;;;;;23.80;10.13;;;;;;;;;;5048589;28;20139;-66
2023/12/05 05:11:46;;;;;;;24.90;9.38;;;;;;;;;;5038015;28;20021;-65
2023/12/05 05:14:12;;;;;;;22.23;9.98;;;;;;;;;;5044665;28;20048;-66
2023/12/05 05:16:37;;;;;;;22.30;10.35;;;;;;;;;;5036845;28;20056;-67
2023/12/05 05:19:02;;;;;;;23.67;9.95;;;;;;;;;;5043271;28;20104;-66
2023/12/05 05:21:27;;;;;;;22.25;9.95;;;;;;;;;;5041328;28;20078;-65
2023/12/05 05:23:53;;;;;;;24.15;11.25;;;;;;;;;;5044318;28;20082;-66
2023/12/05 05:26:18;;;;;;;26.10;10.75;;;;;;;;;;5038921;28;20538;-65
2023/12/05 05:28:43;;;;;;;20.02;9.25;;;;;;;;;;5039610;28;20034;-65
2023/12/05 05:31:08;;;;;;;21.80;10.45;;;;;;;;;;5043617;28;20072;-65
2023/12/05 05:33:33;;;;;;;26.67;10.98;;;;;;;;;;5037079;28;20067;-66
2023/12/05 05:35:59;;;;;;;18.88;9.13;;;;;;;;;;5042797;28;20017;-66
2023/12/05 05:38:24;;;;;;;19.42;9.40;;;;;;;;;;5040815;28;20020;-66
2023/12/05 05:40:49;;;;;;;19.38;9.43;;;;;;;;;;5042239;28;20017;-65
2023/12/05 05:43:14;;;;;;;23.05;10.77;;;;;;;;;;5040304;28;20472;-66
2023/12/05 05:45:40;;;;;;;23.98;10.23;;;;;;;;;;5040979;28;20017;-65
2023/12/05 05:48:05;;;;;;;24.10;10.27;;;;;;;;;;5037928;28;20033;-63
2023/12/05 05:50:30;;;;;;;29.13;11.90;;;;;;;;;;5045730;28;20024;-65
2023/12/05 05:52:55;;;;;;;28.77;12.43;;;;;;;;;;5045959;28;20013;-66
2023/12/05 05:55:24;;;;;;;26.92;11.55;;;;;;;;;;5041415;28;20086;-64
2023/12/05 05:57:49;;;;;;;23.77;10.00;;;;;;;;;;5037647;28;20114;-65
2023/12/05 06:00:15;;;;;;;20.77;9.50;;;;;;;;;;5039069;28;20168;-68
2023/12/05 06:02:40;;;;;;;19.92;10.50;;;;;;;;;;5044478;28;20137;-65
2023/12/05 06:05:05;;;;;;;26.27;10.85;;;;;;;;;;5041226;28;20572;-67
2023/12/05 06:07:30;;;;;;;24.38;9.95;;;;;;;;;;5042320;28;20428;-66
2023/12/05 06:09:56;;;;;;;28.60;11.27;;;;;;;;;;5039326;28;20064;-66
2023/12/05 06:12:22;;;;;;;25.85;10.52;;;;;;;;;;5041748;28;20062;-66
2023/12/05 06:14:47;;;;;;;22.77;10.57;;;;;;;;;;5042785;28;20013;-66
2023/12/05 06:17:12;;;;;;;26.20;10.75;;;;;;;;;;5041146;28;20021;-65
2023/12/05 06:19:37;;;;;;;22.08;9.88;;;;;;;;;;5038585;28;20051;-67
2023/12/05 06:22:03;;;;;;;23.42;11.50;;;;;;;;;;5042935;28;20009;-65
2023/12/05 06:24:28;;;;;;;26.40;10.50;;;;;;;;;;5038893;28;20009;-66
2023/12/05 06:26:53;;;;;;;22.92;10.48;;;;;;;;;;5039447;28;20094;-64
2023/12/05 06:29:19;;;;;;;24.10;10.90;;;;;;;;;;5031792;28;20032;-64
2023/12/05 06:31:44;;;;;;;29.67;12.35;;;;;;;;;;5037432;28;20476;-66
2023/12/05 06:34:09;;;;;;;27.70;11.40;;;;;;;;;;5032179;28;20392;-65
2023/12/05 06:36:34;;;;;;;30.00;13.75;;;;;;;;;;5030683;28;20034;-65
2023/12/05 06:39:00;;;;;;;23.95;9.63;;;;;;;;;;5034179;28;20048;-65
2023/12/05 06:41:25;;;;;;;27.13;11.85;;;;;;;;;;5034416;28;20017;-63
2023/12/05 06:43:51;;;;;;;28.23;11.32;;;;;;;;;;5037593;28;20025;-64
2023/12/05 06:46:16;;;;;;;27.02;11.20;;;;;;;;;;5040271;28;20025;-64
2023/12/05 06:48:42;;;;;;;32.45;11.15;;;;;;;;;;5030719;28;20040;-63
2023/12/05 06:51:08;;;;;;;26.42;10.77;;;;;;;;;;5034360;28;20034;-63
2023/12/05 06:53:34;;;;;;;38.20;12.65;;;;;;;;;;5034053;28;20036;-67
2023/12/05 06:55:59;;;;;;;26.27;10.70;;;;;;;;;;5039613;28;20021;-63
2023/12/05 06:58:25;;;;;;;26.92;10.10;;;;;;;;;;5037897;28;20008;-66
2023/12/05 07:00:50;;;;;;;21.58;10.75;;;;;;;;;;5041935;28;20080;-62
2023/12/05 07:03:15;;;;;;;23.52;10.98;;;;;;;;;;5031194;28;20061;-65
2023/12/05 07:05:40;;;;;;;24.90;10.57;;;;;;;;;;5041572;28;20017;-63
2023/12/05 07:08:06;;;;;;;21.30;10.20;;;;;;;;;;5038762;28;20388;-66
2023/12/05 07:10:32;;;;;;;24.40;10.95;;;;;;;;;;5043633;28;20481;-64
2023/12/05 07:12:58;;;;;;;32.17;11.45;;;;;;;;;;5036723;28;20119;-64
2023/12/05 07:15:23;;;;;;;29.20;13.23;;;;;;;;;;5040804;28;20437;-63
2023/12/05 07:17:49;;;;;;;27.98;12.02;;;;;;;;;;5039626;28;20025;-65
2023/12/05 07:20:14;;;;;;;32.20;11.23;;;;;;;;;;5037674;28;20032;-63
2023/12/05 07:22:39;;;;;;;21.90;10.30;;;;;;;;;;5042469;28;20023;-64
2023/12/05 07:25:04;;;;;;;24.48;11.00;;;;;;;;;;5034482;28;20737;-64
2023/12/05 07:27:30;;;;;;;24.60;10.40;;;;;;;;;;5041989;28;20017;-63
2023/12/05 07:29:55;;;;;;;27.83;11.85;;;;;;;;;;5032170;28;20028;-64
2023/12/05 07:32:20;;;;;;;31.20;10.70;;;;;;;;;;5029065;28;20113;-65
2023/12/05 07:34:45;;;;;;;27.15;10.90;;;;;;;;;;5039207;28;20484;-64
2023/12/05 07:37:11;;;;;;;19.83;9.73;;;;;;;;;;5033140;28;20120;-64
2023/12/05 07:39:36;;;;;;;32.55;11.27;;;;;;;;;;5031115;28;20025;-64
2023/12/05 07:42:01;;;;;;;25.05;10.80;;;;;;;;;;5037836;28;20033;-65
2023/12/05 07:44:27;;;;;;;26.10;10.18;;;;;;;;;;5022730;28;20055;-63
2023/12/05 07:46:52;;;;;;;29.40;14.27;;;;;;;;;;5029759;28;20025;-64
2023/12/05 07:49:17;;;;;;;24.50;9.77;;;;;;;;;;5022915;28;20502;-64
2023/12/05 07:51:42;;;;;;;25.45;10.32;;;;;;;;;;5035752;28;20071;-64
2023/12/05 07:54:08;;;;;;;26.85;11.23;;;;;;;;;;5041633;28;20420;-64
2023/12/05 07:56:33;;;;;;;22.73;10.18;;;;;;;;;;5035646;28;20010;-65
2023/12/05 07:58:58;;;;;;;23.73;11.20;;;;;;;;;;5040551;28;20013;-63
2023/12/05 08:01:23;;;;;;;23.73;10.30;;;;;;;;;;5043966;28;20127;-65
2023/12/05 08:03:49;;;;;;;27.63;12.35;;;;;;;;;;5030603;28;20489;-65
2023/12/05 08:06:14;;;;;;;22.27;9.82;;;;;;;;;;5041320;28;20033;-66
2023/12/05 08:08:39;;;;;;;24.40;9.07;;;;;;;;;;5036651;28;20030;-64
2023/12/05 08:11:05;;;;;;;24.23;10.27;;;;;;;;;;5040806;28;20502;-63
2023/12/05 08:13:30;;;;;;;29.65;10.45;;;;;;;;;;5047548;28;20488;-63
2023/12/05 08:15:55;;;;;;;23.88;9.95;;;;;;;;;;5029525;28;20021;-65
2023/12/05 08:18:21;;;;;;;22.65;10.00;;;;;;;;;;5042668;28;20384;-62
2023/12/05 08:20:46;;;;;;;21.05;10.48;;;;;;;;;;5042388;28;20388;-65
2023/12/05 08:23:12;;;;;;;18.88;9.77;;;;;;;;;;5042055;28;20380;-64
2023/12/05 08:25:37;;;;;;;20.92;8.70;;;;;;;;;;5041637;28;20087;-63
2023/12/05 08:28:02;;;;;;;20.95;9.90;;;;;;;;;;5032571;28;20545;-65
2023/12/05 08:30:27;;;;;;;29.85;10.63;;;;;;;;;;5045689;28;20424;-62
2023/12/05 08:32:56;;;;;;;22.67;10.57;;;;;;;;;;5036806;28;20045;-65
2023/12/05 08:35:22;;;;;;;;;;;;;;;;;;5034607;28;20060;-64
2023/12/05 08:37:47;;;;;;;23.80;9.77;;;;;;;;;;5041185;28;19941;-65
2023/12/05 08:40:12;;;;;;;26.23;9.75;;;;;;;;;;5040031;28;20344;-64
2023/12/05 08:42:39;;;;;;;24.85;10.20;;;;;;;;;;5044795;28;20104;-64
2023/12/05 08:45:04;;;;;;;24.90;10.43;;;;;;;;;;5038764;28;20599;-64
2023/12/05 08:47:30;;;;;;;27.52;9.98;;;;;;;;;;5038053;28;20089;-64
2023/12/05 08:49:55;;;;;;;21.17;10.63;;;;;;;;;;5030902;28;20020;-65
2023/12/05 08:52:20;;;;;;;25.73;10.80;;;;;;;;;;5035153;28;20049;-64
2023/12/05 08:54:45;;;;;;;25.35;10.63;;;;;;;;;;5040722;28;20100;-65
2023/12/05 08:57:10;;;;;;;24.88;9.80;;;;;;;;;;5035499;28;20060;-65
2023/12/05 08:59:37;;;;;;;27.80;10.60;;;;;;;;;;5030731;28;20017;-63
2023/12/05 09:02:02;;;;;;;26.50;10.82;;;;;;;;;;5019841;28;20040;-64
2023/12/05 09:04:28;;;;;;;28.65;10.70;;;;;;;;;;5037809;28;20020;-66
2023/12/05 09:06:53;;;;;;;21.08;10.60;;;;;;;;;;5033871;28;20055;-62
2023/12/05 09:09:18;;;;;;;19.65;9.40;;;;;;;;;;5018347;28;20021;-63
2023/12/05 09:11:45;;;;;;;23.63;9.73;;;;;;;;;;5023094;28;20087;-65
2023/12/05 09:14:10;;;;;;;28.75;11.18;;;;;;;;;;5025916;28;20033;-64
2023/12/05 09:16:35;;;;;;;26.45;11.65;;;;;;;;;;5024193;28;20075;-67
2023/12/05 09:19:01;;;;;;;32.97;11.52;;;;;;;;;;5023714;28;20809;-65
2023/12/05 09:21:26;;;;;;;24.65;10.32;;;;;;;;;;5025364;28;20021;-65
2023/12/05 09:23:52;;;;;;;23.10;10.88;;;;;;;;;;5020461;28;20026;-64
2023/12/05 09:26:18;;;;;;;26.83;11.63;;;;;;;;;;5021807;28;20036;-65
2023/12/05 09:28:43;;;;;;;23.70;9.40;;;;;;;;;;5021890;28;20847;-64
2023/12/05 09:31:08;;;;;;;27.00;11.27;;;;;;;;;;5020195;28;20041;-64
2023/12/05 09:33:34;;;;;;;23.20;9.77;;;;;;;;;;5021431;28;20702;-65
2023/12/05 09:35:59;;;;;;;21.40;10.70;;;;;;;;;;5020864;28;20025;-65
2023/12/05 09:38:24;;;;;;;36.10;11.35;;;;;;;;;;5020379;28;20026;-66
2023/12/05 09:40:51;;;;;;;20.25;9.80;;;;;;;;;;5021963;28;20614;-64
2023/12/05 09:43:18;;;;;;;23.90;10.13;;;;;;;;;;5020635;28;20079;-63
2023/12/05 09:45:45;;;;;;;24.98;11.13;;;;;;;;;;5022171;28;20530;-63
2023/12/05 09:48:11;;;;;;;21.58;10.82;;;;;;;;;;5022154;28;20516;-66
2023/12/05 09:50:39;;;;;;;22.00;9.52;;;;;;;;;;5021153;28;20729;-64
2023/12/05 09:53:05;;;;;;;23.65;10.63;;;;;;;;;;5020812;28;20045;-64
2023/12/05 09:55:30;;;;;;;29.77;11.70;;;;;;;;;;5025260;28;20118;-65
2023/12/05 09:57:57;;;;;;;23.17;10.68;;;;;;;;;;5022223;28;20393;-65
2023/12/05 10:00:22;;;;;;;22.63;9.90;;;;;;;;;;5023153;28;20511;-65
2023/12/05 10:02:49;;;;;;;23.27;10.32;;;;;;;;;;5023258;28;20017;-64
2023/12/05 10:05:15;;;;;;;21.73;10.35;;;;;;;;;;5023504;28;20056;-66
2023/12/05 10:07:41;;;;;;;20.95;10.45;;;;;;;;;;5023831;28;20033;-65
2023/12/05 10:10:07;;;;;;;27.15;10.25;;;;;;;;;;5021084;28;20060;-66
2023/12/05 10:12:33;;;;;;;22.80;9.38;;;;;;;;;;5021596;28;21559;-63
2023/12/05 10:14:58;;;;;;;23.60;9.75;;;;;;;;;;5023605;28;20021;-64
2023/12/05 10:17:25;;;;;;;22.25;9.23;;;;;;;;;;5021125;28;20026;-64
2023/12/05 10:19:51;;;;;;;20.35;10.05;;;;;;;;;;5017218;28;20481;-65
2023/12/05 10:22:16;;;;;;;19.83;8.50;;;;;;;;;;5023265;28;20045;-66
2023/12/05 10:24:42;;;;;;;21.92;9.63;;;;;;;;;;5022452;28;20041;-64
2023/12/05 10:27:07;;;;;;;19.13;9.02;;;;;;;;;;5020435;28;20042;-65
2023/12/05 10:29:36;;;;;;;20.52;9.73;;;;;;;;;;5021102;28;20097;-64
2023/12/05 10:32:01;;;;;;;18.33;9.23;;;;;;;;;;5021601;28;20025;-65
2023/12/05 10:34:27;;;;;;;26.40;9.88;;;;;;;;;;5022357;28;20037;-65
2023/12/05 10:37:00;;;;;;;23.52;9.60;;;;;;;;;;5022558;28;20092;-65
2023/12/05 10:39:34;;;;;;;17.80;8.95;;;;;;;;;;5020300;28;20029;-65
2023/12/05 10:41:59;;;;;;;16.48;8.98;;;;;;;;;;5021416;28;20029;-65
2023/12/05 10:44:24;;;;;;;18.55;9.50;;;;;;;;;;5023929;28;20510;-65
2023/12/05 10:46:55;;;;;;;23.92;10.45;;;;;;;;;;5022250;28;20439;-63
2023/12/05 10:49:20;;;;;;;20.00;10.07;;;;;;;;;;5021624;28;20033;-64
2023/12/05 10:51:45;;;;;;;21.20;10.38;;;;;;;;;;5023958;28;20021;-64
2023/12/05 10:54:10;;;;;;;18.83;9.65;;;;;;;;;;5022145;28;20449;-66
2023/12/05 10:56:36;;;;;;;23.27;9.65;;;;;;;;;;5022997;28;20052;-66
2023/12/05 10:59:03;;;;;;;22.10;9.65;;;;;;;;;;5021027;28;20033;-65
2023/12/05 11:01:28;;;;;;;19.58;9.65;;;;;;;;;;5021618;28;20013;-64
2023/12/05 11:03:58;;;;;;;26.23;9.85;;;;;;;;;;5023673;28;20021;-64
2023/12/05 11:06:25;;;;;;;25.48;9.93;;;;;;;;;;5020291;28;20017;-65
2023/12/05 11:08:50;;;;;;;21.02;9.52;;;;;;;;;;5020500;28;20022;-65
2023/12/05 11:11:18;;;;;;;26.40;10.98;;;;;;;;;;5020454;28;20035;-65
2023/12/05 11:13:45;;;;;;;19.67;9.10;;;;;;;;;;5024786;28;20896;-65
2023/12/05 11:16:19;;;;;;;17.83;8.90;;;;;;;;;;5020514;28;20029;-66
2023/12/05 11:18:45;;;;;;;16.85;8.90;;;;;;;;;;5021837;28;20191;-65
2023/12/05 11:21:26;;;;;;;19.10;9.15;;;;;;;;;;5020456;28;20428;-66
2023/12/05 11:24:14;;;;;;;23.42;9.07;;;;;;;;;;5018030;28;20017;-64
2023/12/05 11:27:04;;;;;;;24.30;11.38;;;;;;;;;;5021301;28;20504;-64
2023/12/05 11:29:48;;;;;;;23.95;11.80;;;;;;;;;;5019828;28;20029;-65
2023/12/05 11:32:22;;;;;;;22.35;9.90;;;;;;;;;;5021707;28;20037;-66
2023/12/05 11:35:03;;;;;;;27.45;11.18;;;;;;;;;;5023020;28;20009;-66
2023/12/05 11:37:46;;;;;;;24.13;10.30;;;;;;;;;;5022007;28;20012;-65
2023/12/05 11:40:12;;;;;;;25.05;10.52;;;;;;;;;;5018471;28;20018;-66
2023/12/05 11:42:57;;;;;;;25.50;11.35;;;;;;;;;;5021759;28;20021;-63
2023/12/05 11:45:23;;;;;;;25.13;11.50;;;;;;;;;;5022598;28;20037;-65
2023/12/05 11:47:49;;;;;;;26.92;11.25;;;;;;;;;;5020770;28;20369;-66
2023/12/05 11:50:15;;;;;;;26.80;11.05;;;;;;;;;;5017095;28;20034;-66
2023/12/05 11:52:40;;;;;;;32.47;12.57;;;;;;;;;;5020371;28;20714;-65
2023/12/05 11:55:07;;;;;;;28.08;11.48;;;;;;;;;;5020899;28;20881;-64
2023/12/05 11:57:33;;;;;;;21.95;9.77;;;;;;;;;;5020401;28;20017;-66
2023/12/05 11:59:59;;;;;;;23.92;10.60;;;;;;;;;;5021620;28;20025;-65
2023/12/05 12:02:39;;;;;;;26.65;9.85;;;;;;;;;;5021695;28;21894;-66
2023/12/05 12:05:05;;;;;;;24.17;9.82;;;;;;;;;;5019975;28;20550;-64
2023/12/05 12:07:30;;;;;;;23.50;10.18;;;;;;;;;;5021311;28;20026;-66
2023/12/05 12:09:56;;;;;;;20.55;10.38;;;;;;;;;;5014313;28;20104;-66
2023/12/05 12:12:21;;;;;;;24.63;10.77;;;;;;;;;;5021457;28;20124;-67
2023/12/05 12:14:47;;;;;;;29.05;12.88;;;;;;;;;;5021333;28;20033;-67
2023/12/05 12:17:12;;;;;;;26.17;12.48;;;;;;;;;;5020570;28;20160;-68
2023/12/05 12:19:38;;;;;;;42.55;16.50;;;;;;;;;;5017972;28;20381;-65
2023/12/05 12:22:09;;;;;;;28.20;13.02;;;;;;;;;;5019391;28;20048;-65
2023/12/05 12:24:36;;;;;;;45.60;15.30;;;;;;;;;;5018756;28;20158;-64
2023/12/05 12:27:02;;;;;;;32.60;13.20;;;;;;;;;;5031814;22;20042;-68
2023/12/05 12:29:27;;;;;;;90.95;27.20;;;;;;;;;;5012471;28;20068;-70
2023/12/05 12:32:03;;;;;;;41.35;14.55;;;;;;;;;;5016037;28;20086;-67
2023/12/05 12:34:28;;;;;;;42.17;16.02;;;;;;;;;;5015012;28;20033;-69
2023/12/05 12:36:55;;;;;;;30.50;13.80;;;;;;;;;;5012328;28;20104;-69
2023/12/05 12:39:22;;;;;;;39.58;14.02;;;;;;;;;;5005347;28;20667;-68
2023/12/05 12:41:47;;;;;;;43.55;16.35;;;;;;;;;;5009471;28;20152;-68
2023/12/05 12:44:13;;;;;;;31.17;14.05;;;;;;;;;;5010728;28;20101;-67
2023/12/05 12:46:39;;;;;;;39.45;14.10;;;;;;;;;;5011202;28;20060;-68
2023/12/05 12:49:06;;;;;;;29.80;12.38;;;;;;;;;;5006942;28;20104;-68
2023/12/05 12:51:32;;;;;;;36.45;14.80;;;;;;;;;;5012629;28;20033;-69
2023/12/05 12:53:58;;;;;;;30.00;14.10;;;;;;;;;;5011722;28;20080;-66
2023/12/05 12:56:23;;;;;;;25.27;12.10;;;;;;;;;;5015034;28;20038;-67
2023/12/05 12:58:49;;;;;;;25.23;11.95;;;;;;;;;;5012603;28;20037;-70
2023/12/05 13:01:14;;;;;;;24.30;11.68;;;;;;;;;;5010223;28;20091;-68
2023/12/05 13:03:43;;;;;;;22.88;10.63;;;;;;;;;;5013875;28;20029;-68
2023/12/05 13:06:09;;;;;;;25.40;10.65;;;;;;;;;;5011405;28;20018;-68
2023/12/05 13:08:34;;;;;;;28.52;11.10;;;;;;;;;;5010212;28;20422;-69
2023/12/05 13:10:59;;;;;;;22.48;10.57;;;;;;;;;;5014597;28;20937;-68
2023/12/05 13:13:24;;;;;;;20.92;9.38;;;;;;;;;;5004326;28;20030;-68
2023/12/05 13:15:50;;;;;;;24.00;10.85;;;;;;;;;;4999655;28;20026;-69
2023/12/05 13:18:15;;;;;;;21.42;10.82;;;;;;;;;;4994689;28;20019;-66
2023/12/05 13:20:49;;;;;;;24.38;10.25;;;;;;;;;;5002328;28;20041;-67
2023/12/05 13:23:14;;;;;;;25.38;11.50;;;;;;;;;;4994971;28;20049;-67
2023/12/05 13:25:39;;;;;;;26.30;10.48;;;;;;;;;;4993686;28;20423;-67
2023/12/05 13:28:04;;;;;;;24.80;10.15;;;;;;;;;;5002712;28;20083;-67
2023/12/05 13:30:30;;;;;;;20.67;10.73;;;;;;;;;;4996900;28;20042;-68
2023/12/05 13:32:55;;;;;;;29.67;11.10;;;;;;;;;;4998885;28;20021;-66
2023/12/05 13:35:20;;;;;;;22.58;10.05;;;;;;;;;;5005234;28;20026;-68
2023/12/05 13:37:46;;;;;;;25.75;9.77;;;;;;;;;;4996100;28;20006;-67
2023/12/05 13:40:11;;;;;;;31.13;11.18;;;;;;;;;;5001549;28;20087;-66
2023/12/05 13:42:36;;;;;;;24.92;11.10;;;;;;;;;;4997861;28;20382;-67
2023/12/05 13:45:02;;;;;;;21.02;8.90;;;;;;;;;;4993674;28;20033;-67
2023/12/05 13:47:28;;;;;;;21.20;9.98;;;;;;;;;;5000401;28;20505;-68
2023/12/05 13:49:53;;;;;;;21.30;10.32;;;;;;;;;;5003149;28;20018;-68
2023/12/05 13:52:19;;;;;;;22.25;9.80;;;;;;;;;;4999696;28;20022;-67
2023/12/05 13:54:45;;;;;;;23.42;10.63;;;;;;;;;;5000370;28;20014;-68
2023/12/05 13:57:10;;;;;;;28.33;10.35;;;;;;;;;;5003135;28;20079;-69
2023/12/05 13:59:35;;;;;;;23.52;10.05;;;;;;;;;;4999582;28;20595;-69
2023/12/05 14:02:02;;;;;;;27.38;10.93;;;;;;;;;;4997169;28;20018;-68
2023/12/05 14:04:27;;;;;;;20.55;10.43;;;;;;;;;;4996436;28;20118;-67
2023/12/05 14:06:53;;;;;;;28.25;11.90;;;;;;;;;;5001482;28;20088;-68
2023/12/05 14:09:18;;;;;;;28.73;11.70;;;;;;;;;;4992802;28;20595;-68
2023/12/05 14:11:44;;;;;;;25.30;10.20;;;;;;;;;;4996979;28;20101;-67
2023/12/05 14:14:09;;;;;;;25.85;10.90;;;;;;;;;;4989343;28;20029;-67
2023/12/05 14:16:35;;;;;;;30.58;11.55;;;;;;;;;;4996509;28;20160;-68